genesis-ec.com alexa rank chart, genesis-ec.com alexa rank daily changes

genesis-ec.com alexa rank chart, genesis-ec.com alexa rank daily changes

genesis-ec.com
Actual rank:
410 710

RANK HISTORY

Date Rank Diff
2017/07/20 410 710 +33 384
2017/07/19 377 326 -1 022
2017/07/18 378 348 -30 938
2017/07/17 409 286 -1 801
2017/07/16 411 087 -27 868
2017/07/15 438 955 +25 635
2017/07/14 413 320 -363
2017/07/13 413 683 -24 713
2017/07/12 438 396 +31 672
2017/07/11 406 724 -953
2017/07/10 407 677 +17 550
2017/07/09 390 127 -393
2017/07/08 390 520 -239
2017/07/07 390 759 -176
2017/07/06 390 935 +1 203
2017/07/05 389 732 +1 981
2017/07/04 387 751 -1 014
2017/07/03 388 765 -2 740
2017/07/02 391 505 +20 372
2017/07/01 371 133 +28 888
2017/06/30 342 245 +16 628
2017/06/29 325 617 +37 439
2017/06/28 288 178 +745
2017/06/27 287 433 +7 916
2017/06/26 279 517 -1 027
2017/06/25 280 544 -30 958
2017/06/24 311 502 -21 869
2017/06/23 333 371 +21 618
2017/06/22 311 753 -300
2017/06/21 312 053 +2 392
2017/06/20 309 661 -33 195
2017/06/19 342 856 +11 151
2017/06/18 331 705 -346
2017/06/17 332 051 -307
2017/06/16 332 358 +1 009
2017/06/15 331 349 +5 478
2017/06/14 325 871 +46 554
2017/06/13 279 317 +9 009
2017/06/12 270 308 -1 069
2017/06/11 271 377 +32 343
2017/06/10 239 034 +30 765
2017/06/09 208 269 +526
2017/06/08 207 743 +686
2017/06/07 207 057 +7 117
2017/06/06 199 940 +5 352
2017/06/05 194 588 +6 427
2017/06/04 188 161 +5 088
2017/06/03 183 073 +2 003
2017/06/02 181 070 -3 731
2017/06/01 184 801 +320
2017/05/31 184 481 -8 711
2017/05/30 193 192 +1 175
2017/05/29 192 017 +2 399
2017/05/28 189 618 +4 305
2017/05/27 185 313 +2 187
2017/05/26 183 126 +11 363
2017/05/25 171 763 +4 504
2017/05/24 167 259 -3 163
2017/05/23 170 422 +3 862
2017/05/22 166 560 -455
2017/05/21 167 015

WIDGET FOR YOUR SITE

DOMAINS WITH THE NEAREST RANK

Domain Rank
paradise2017.co 410 705
pesnitut.com 410 706
magicdriver.com 410 707
zdrav36.ru 410 708
dnpr.com.ua 410 709
genesis-ec.com 410 710
mesechantillons-lor.fr 410 711
snaptee.co 410 712
publishingconcepts.com 410 713
co2.earth 410 714
lilienthal.berlin 410 715

DOMAINS WITH THE NEAREST RANK BY TLD .com

Domain Rank
thegoldgods.com 410 697
haeahn.com 410 699
futbol1903.com 410 703
pesnitut.com 410 706
magicdriver.com 410 707
genesis-ec.com 410 710
publishingconcepts.com 410 713
kinetica.com 410 716
loanme.com 410 717
kakpostirat.com 410 718
linux23.com 410 719